Time;durP1;ratioP1;P1;durP2;ratioP2;P2;SDS_P1;SDS_P2;PMS_P1;PMS_P2;Temp;Humidity;BMP_temperature;BMP_pressure;BME280_temperature;BME280_humidity;BME280_pressure;Samples;Min_cycle;Max_cycle;Signal;HPM_P1;HPM_P2
2021/11/30 00:02:30;;;;;;;;;24.00;24.00;;;;;12.82;82.65;99254.56;4841848;29;10356;-72
2021/11/30 00:05:26;;;;;;;;;21.50;21.50;;;;;12.76;82.04;99257.69;4843348;29;10373;-73
2021/11/30 00:08:24;;;;;;;;;25.00;25.00;;;;;12.79;81.36;99261.66;4843274;29;10258;-74
2021/11/30 00:11:19;;;;;;;;;21.75;21.75;;;;;12.71;81.59;99259.97;4842965;29;10225;-73
2021/11/30 00:14:15;;;;;;;;;26.75;26.75;;;;;12.65;81.80;99275.38;4824756;29;10320;-73
2021/11/30 00:16:43;;;;;;;;;27.50;27.00;;;;;12.66;81.25;99279.75;4825665;29;10202;-73
2021/11/30 00:19:40;;;;;;;;;21.75;21.75;;;;;12.60;79.77;99281.28;4824796;29;10268;-72
2021/11/30 00:22:36;;;;;;;;;26.75;26.50;;;;;12.62;78.59;99301.88;4824902;29;10149;-72
2021/11/30 00:25:32;;;;;;;;;23.50;23.50;;;;;12.35;77.81;99309.50;4825840;29;10210;-72
2021/11/30 00:28:28;;;;;;;;;26.50;24.75;;;;;12.34;77.78;99318.94;4824612;29;10457;-72
2021/11/30 00:31:23;;;;;;;;;21.75;21.75;;;;;12.45;77.93;99324.66;4837020;29;10596;-72
2021/11/30 00:34:20;;;;;;;;;27.75;27.50;;;;;12.30;77.99;99323.66;4842791;29;10433;-73
2021/11/30 00:37:16;;;;;;;;;27.50;25.50;;;;;12.25;77.46;99326.75;4842761;29;10646;-72
2021/11/30 00:40:12;;;;;;;;;20.50;20.50;;;;;12.26;76.22;99331.13;4828088;29;10485;-73
2021/11/30 00:43:09;;;;;;;;;23.50;23.50;;;;;12.00;76.38;99342.22;4841670;29;10520;-73
2021/11/30 00:46:18;;;;;;;;;23.75;22.50;;;;;12.01;75.91;99333.53;4842571;29;10582;-73
2021/11/30 00:49:13;;;;;;;;;24.25;24.25;;;;;11.98;75.37;99344.59;4842499;29;10607;-73
2021/11/30 00:52:09;;;;;;;;;22.75;22.75;;;;;11.84;75.28;99348.72;4830945;29;10601;-74
2021/11/30 00:55:06;;;;;;;;;21.50;21.50;;;;;11.68;76.49;99359.91;4824247;29;10628;-73
2021/11/30 00:58:01;;;;;;;;;20.25;20.25;;;;;11.73;76.91;99356.03;4824152;29;10649;-70
2021/11/30 01:00:57;;;;;;;;;21.25;21.25;;;;;11.79;76.66;99364.81;4824907;29;10635;-73
2021/11/30 01:03:52;;;;;;;;;22.00;22.00;;;;;11.76;75.53;99376.66;4823893;29;10624;-73
2021/11/30 01:06:20;;;;;;;;;30.25;27.75;;;;;11.60;76.17;99388.66;4824931;29;10372;-73
2021/11/30 01:09:16;;;;;;;;;30.50;27.50;;;;;11.68;75.99;99397.88;4823951;29;10912;-73
2021/11/30 01:12:12;;;;;;;;;23.50;23.50;;;;;11.53;75.41;99399.59;4824284;29;10886;-71
2021/11/30 01:15:12;;;;;;;;;21.00;21.00;;;;;11.46;74.66;99412.53;4823623;29;10978;-71
2021/11/30 01:17:40;;;;;;;;;20.00;20.00;;;;;11.46;74.47;99418.06;4824887;29;10814;-72
2021/11/30 01:20:36;;;;;;;;;19.25;18.75;;;;;11.20;74.56;99432.59;4823752;29;10611;-72
2021/11/30 01:23:32;;;;;;;;;17.25;16.75;;;;;11.25;73.97;99446.13;4841336;29;11384;-72
2021/11/30 01:26:27;;;;;;;;;14.75;14.75;;;;;10.91;72.95;99445.03;4841817;29;10678;-72
2021/11/30 01:29:23;;;;;;;;;18.00;18.00;;;;;11.11;72.82;99455.72;4841446;29;10906;-72
2021/11/30 01:32:19;;;;;;;;;16.00;16.00;;;;;11.04;72.33;99458.38;4839966;29;10588;-71
2021/11/30 01:35:17;;;;;;;;;13.50;13.50;;;;;11.05;72.08;99470.25;4840433;29;10760;-72
2021/11/30 01:38:14;;;;;;;;;19.25;18.50;;;;;11.02;71.75;99479.25;4841641;29;10609;-72
2021/11/30 01:41:11;;;;;;;;;17.00;17.00;;;;;10.75;72.22;99492.91;4839110;29;10784;-72
2021/11/30 01:44:12;;;;;;;;;17.75;17.75;;;;;10.76;73.11;99494.50;4822618;29;10907;-71
2021/11/30 01:47:11;;;;;;;;;13.50;13.25;;;;;10.75;73.73;99492.91;4823487;29;10902;-71
2021/11/30 01:50:11;;;;;;;;;18.00;18.00;;;;;10.85;73.75;99491.53;4823532;29;10804;-71
2021/11/30 01:53:07;;;;;;;;;18.00;18.00;;;;;10.70;73.41;99495.94;4838498;29;10909;-72
2021/11/30 01:56:03;;;;;;;;;18.25;17.00;;;;;10.68;73.51;99495.50;4841329;29;11686;-72
2021/11/30 01:58:59;;;;;;;;;8.00;7.75;;;;;10.36;73.40;99510.56;4841380;29;10891;-72
2021/11/30 02:01:44;;;;;;;;;11.75;11.75;;;;;10.38;73.73;99519.28;4839245;29;10795;-72
2021/11/30 02:04:41;;;;;;;;;12.00;12.00;;;;;10.46;73.92;99526.56;4823630;29;11455;-72
2021/11/30 02:07:37;;;;;;;;;12.75;12.75;;;;;10.30;74.08;99527.41;4823233;29;10863;-72
2021/11/30 02:10:35;;;;;;;;;15.25;15.25;;;;;10.54;73.18;99520.84;4823182;29;11063;-72
2021/11/30 02:13:31;;;;;;;;;7.50;7.50;;;;;10.32;71.94;99524.25;4832937;29;10746;-72
2021/11/30 02:16:27;;;;;;;;;15.00;15.00;;;;;10.27;72.60;99530.88;4841280;29;10987;-72
2021/11/30 02:19:22;;;;;;;;;12.50;12.50;;;;;10.33;71.84;99539.69;4840754;29;11984;-73
2021/11/30 02:22:18;;;;;;;;;13.25;13.25;;;;;10.30;71.60;99546.75;4823977;29;11254;-72
2021/11/30 02:25:14;;;;;;;;;12.50;12.50;;;;;10.14;71.75;99551.44;4823034;29;11309;-72
2021/11/30 02:28:10;;;;;;;;;8.50;8.50;;;;;10.04;71.84;99565.75;4822948;29;10919;-72
2021/11/30 02:31:07;;;;;;;;;10.75;10.75;;;;;9.90;72.09;99576.44;4823377;29;11163;-71
2021/11/30 02:34:05;;;;;;;;;9.25;9.25;;;;;9.97;72.27;99571.09;4839704;29;11746;-72
2021/11/30 02:37:07;;;;;;;;;12.00;12.00;;;;;9.88;71.57;99573.19;4841514;29;11064;-72
2021/11/30 02:40:04;;;;;;;;;15.25;14.75;;;;;9.87;71.86;99558.59;4841283;29;10989;-71
2021/11/30 02:43:01;;;;;;;;;15.00;15.00;;;;;9.86;71.61;99575.53;4839256;29;11159;-72
2021/11/30 02:45:56;;;;;;;;;10.00;10.00;;;;;9.78;72.35;99591.09;4844478;29;11218;-72
2021/11/30 02:48:52;;;;;;;;;16.00;16.00;;;;;9.76;72.16;99596.16;4844518;29;11227;-72
2021/11/30 02:51:51;;;;;;;;;13.25;12.00;;;;;9.54;70.76;99602.22;4844694;29;11333;-72
2021/11/30 02:54:53;;;;;;;;;11.75;11.75;;;;;9.37;70.10;99608.84;4814722;29;11905;-72
2021/11/30 02:57:49;;;;;;;;;13.00;12.50;;;;;9.56;70.17;99602.69;4825898;29;11355;-72
2021/11/30 03:00:45;;;;;;;;;14.75;14.75;;;;;9.62;69.08;99604.84;4826754;29;11458;-72
2021/11/30 03:03:41;;;;;;;;;12.75;12.75;;;;;9.41;69.32;99602.25;4836616;29;11435;-72
2021/11/30 03:06:09;;;;;;;;;10.75;10.75;;;;;9.45;68.71;99600.41;4844483;29;11314;-72
2021/11/30 03:09:05;;;;;;;;;13.25;13.25;;;;;9.34;67.52;99599.28;4843741;29;11222;-72
2021/11/30 03:12:01;;;;;;;;;10.00;10.00;;;;;9.35;68.22;99602.84;4843399;29;11671;-72
2021/11/30 03:14:56;;;;;;;;;11.50;11.50;;;;;9.27;68.82;99610.09;4840902;29;11413;-72
2021/11/30 03:17:54;;;;;;;;;14.75;14.75;;;;;9.21;68.24;99617.03;4842461;29;12123;-72
2021/11/30 03:20:50;;;;;;;;;13.00;13.00;;;;;9.36;68.54;99613.56;4825257;29;11346;-72
2021/11/30 03:23:46;;;;;;;;;16.00;16.00;;;;;9.25;69.27;99617.13;4835043;29;11234;-72
2021/11/30 03:26:41;;;;;;;;;17.00;15.50;;;;;9.22;69.48;99628.88;4843858;29;11794;-72
2021/11/30 03:29:37;;;;;;;;;15.25;13.25;;;;;9.26;69.61;99627.81;4844147;29;11338;-72
2021/11/30 03:35:29;;;;;;;;;18.50;18.50;;;;;8.93;71.53;99627.97;4825395;29;11718;-72
2021/11/30 03:38:25;;;;;;;;;12.00;12.00;;;;;8.74;71.50;99627.72;4825396;29;11710;-72
2021/11/30 03:41:21;;;;;;;;;16.00;16.00;;;;;8.87;70.70;99627.41;4841318;29;11442;-72
2021/11/30 03:44:17;;;;;;;;;15.75;15.00;;;;;8.76;70.47;99634.53;4825674;29;11360;-73
2021/11/30 03:47:14;;;;;;;;;13.25;12.00;;;;;8.70;70.43;99641.41;4842940;29;11664;-73
2021/11/30 03:50:10;;;;;;;;;14.75;14.50;;;;;8.73;71.02;99642.66;4843536;29;12426;-73
2021/11/30 03:53:06;;;;;;;;;12.00;11.50;;;;;8.71;69.92;99644.97;4838073;29;11445;-72
2021/11/30 03:56:02;;;;;;;;;7.25;6.00;;;;;8.63;71.25;99655.75;4824865;29;12040;-73
2021/11/30 03:58:58;;;;;;;;;11.25;11.25;;;;;8.44;71.10;99672.03;4840796;29;12206;-72
2021/11/30 04:01:54;;;;;;;;;15.75;15.75;;;;;8.45;71.15;99681.13;4836067;29;11660;-72
2021/11/30 04:04:27;;;;;;;;;12.00;10.50;;;;;8.49;71.27;99676.50;4833905;29;11781;-73
2021/11/30 04:07:22;;;;;;;;;11.50;11.50;;;;;8.44;70.38;99690.53;4843308;29;11646;-72
2021/11/30 04:10:18;;;;;;;;;10.50;10.50;;;;;8.34;69.63;99697.22;4842713;29;11635;-73
2021/11/30 04:12:47;;;;;;;;;10.75;10.75;;;;;8.37;69.93;99707.63;4840452;29;11825;-72
2021/11/30 04:15:43;;;;;;;;;11.00;11.00;;;;;8.20;70.57;99721.50;4825022;29;11639;-73
2021/11/30 04:18:39;;;;;;;;;11.00;11.00;;;;;8.19;70.61;99715.19;4824805;29;11664;-73
2021/11/30 04:21:35;;;;;;;;;11.50;11.50;;;;;8.05;71.11;99729.25;4824762;29;11695;-73
2021/11/30 04:24:31;;;;;;;;;11.75;10.50;;;;;8.02;71.85;99732.69;4840061;29;11662;-73
2021/11/30 04:27:27;;;;;;;;;11.50;11.50;;;;;7.93;72.77;99734.69;4843498;29;11655;-73
2021/11/30 04:30:22;;;;;;;;;12.00;12.00;;;;;7.85;74.13;99727.31;4842847;29;11635;-71
2021/11/30 04:33:18;;;;;;;;;17.25;17.00;;;;;7.85;73.50;99741.09;4841452;29;11742;-72
2021/11/30 04:36:14;;;;;;;;;18.75;18.75;;;;;7.74;73.60;99737.94;4824533;29;11707;-72
2021/11/30 04:39:10;;;;;;;;;18.00;18.00;;;;;7.80;73.09;99755.03;4831752;29;12465;-72
2021/11/30 04:42:06;;;;;;;;;15.00;15.00;;;;;7.75;71.90;99764.31;4827228;29;11741;-72
2021/11/30 04:45:09;;;;;;;;;17.25;17.25;;;;;7.73;73.09;99769.31;4842368;29;11691;-71
2021/11/30 04:48:05;;;;;;;;;15.00;15.00;;;;;7.69;71.79;99768.41;4842439;29;11665;-72
2021/11/30 04:51:02;;;;;;;;;11.25;11.25;;;;;7.58;71.62;99766.34;4842336;29;11688;-72
2021/11/30 04:53:58;;;;;;;;;17.75;17.50;;;;;7.61;70.91;99787.72;4828815;29;11690;-71
2021/11/30 04:56:54;;;;;;;;;17.75;15.25;;;;;7.40;70.76;99782.97;4836714;29;11714;-71
2021/11/30 04:59:50;;;;;;;;;17.50;17.50;;;;;7.22;70.84;99782.25;4824035;29;11869;-72
2021/11/30 05:02:46;;;;;;;;;18.00;18.00;;;;;7.33;70.57;99781.88;4824954;29;11720;-72
2021/11/30 05:05:43;;;;;;;;;20.75;20.75;;;;;7.17;70.56;99778.88;4823699;29;12594;-71
2021/11/30 05:08:39;;;;;;;;;21.50;21.50;;;;;6.97;70.14;99780.38;4841295;29;11816;-71
2021/11/30 05:11:37;;;;;;;;;27.50;26.25;;;;;7.00;70.96;99779.75;4841486;29;12569;-71
2021/11/30 05:14:33;;;;;;;;;24.25;24.25;;;;;7.07;70.98;99776.50;4841542;29;11774;-72
2021/11/30 05:17:20;;;;;;;;;22.25;22.25;;;;;6.93;71.54;99796.75;4836564;29;11795;-72
2021/11/30 05:20:16;;;;;;;;;17.25;17.25;;;;;6.90;71.77;99802.91;4839830;29;12509;-72
2021/11/30 05:23:14;;;;;;;;;19.75;18.75;;;;;6.86;72.07;99810.19;4839748;29;11719;-72
2021/11/30 05:26:24;;;;;;;;;18.00;18.00;;;;;6.84;71.81;99798.72;4829473;29;11726;-72
2021/11/30 05:29:20;;;;;;;;;23.00;19.50;;;;;6.74;72.73;99793.53;4829453;29;11855;-72
2021/11/30 05:32:16;;;;;;;;;22.00;20.50;;;;;6.74;72.67;99779.81;4841437;29;11760;-73
2021/11/30 05:35:11;;;;;;;;;27.25;25.75;;;;;6.80;72.30;99778.50;4836295;29;11749;-73
2021/11/30 05:37:40;;;;;;;;;23.00;23.00;;;;;6.88;71.95;99785.09;4841424;29;11860;-72
2021/11/30 05:40:40;;;;;;;;;27.00;27.00;;;;;6.85;72.12;99802.25;4841279;29;11757;-74
2021/11/30 05:43:36;;;;;;;;;23.00;22.75;;;;;6.79;72.10;99815.38;4828093;29;11743;-72
2021/11/30 05:46:35;;;;;;;;;10.50;9.75;;;;;6.83;71.73;99812.78;4840644;29;11766;-72
2021/11/30 05:49:31;;;;;;;;;15.50;15.50;;;;;6.77;71.85;99830.56;4841299;29;12517;-72
2021/11/30 05:52:27;;;;;;;;;22.25;22.25;;;;;6.77;71.20;99844.31;4840560;29;11757;-72
2021/11/30 05:55:23;;;;;;;;;21.50;21.50;;;;;6.84;70.05;99867.41;4841006;29;11736;-72
2021/11/30 05:58:18;;;;;;;;;27.25;27.25;;;;;6.69;70.00;99868.72;4823048;29;11765;-72
2021/11/30 06:01:21;;;;;;;;;24.50;24.50;;;;;6.65;70.48;99867.75;4829457;29;11730;-72
2021/11/30 06:04:17;;;;;;;;;31.00;28.75;;;;;6.67;70.57;99872.91;4836232;29;11770;-72
2021/11/30 06:07:13;;;;;;;;;34.50;31.00;;;;;6.65;71.49;99866.94;4840327;29;11733;-72
2021/11/30 06:10:08;;;;;;;;;28.25;28.25;;;;;6.69;71.80;99863.25;4839430;29;11791;-72
2021/11/30 06:13:05;;;;;;;;;26.50;25.75;;;;;6.87;70.91;99887.94;4838947;29;11834;-72
2021/11/30 06:16:00;;;;;;;;;19.50;19.50;;;;;6.99;69.42;99890.03;4840823;29;11766;-72
2021/11/30 06:18:56;;;;;;;;;21.75;21.75;;;;;6.91;69.82;99884.22;4829282;29;11733;-72
2021/11/30 06:21:52;;;;;;;;;13.75;13.75;;;;;6.75;69.99;99896.84;4843426;29;11780;-71
2021/11/30 06:24:48;;;;;;;;;22.25;22.25;;;;;6.90;68.66;99888.13;4844245;29;11769;-71
2021/11/30 06:27:44;;;;;;;;;24.50;24.50;;;;;7.02;68.49;99883.88;4832030;29;12534;-70
2021/11/30 06:30:40;;;;;;;;;21.00;18.00;;;;;7.02;68.44;99883.88;4843517;29;11750;-72
2021/11/30 06:33:36;;;;;;;;;16.50;16.50;;;;;7.16;67.74;99879.00;4832312;29;11772;-71
2021/11/30 06:36:31;;;;;;;;;18.75;18.75;;;;;7.04;68.47;99878.84;4844314;29;11743;-72
2021/11/30 06:39:27;;;;;;;;;15.25;13.25;;;;;7.09;67.95;99874.00;4832028;29;11786;-72
2021/11/30 06:42:23;;;;;;;;;23.00;23.00;;;;;7.22;69.12;99872.19;4844092;29;11926;-73
2021/11/30 06:45:19;;;;;;;;;20.25;20.25;;;;;7.34;67.90;99866.78;4844177;29;11750;-72
2021/11/30 06:48:16;;;;;;;;;19.75;19.75;;;;;7.39;67.58;99874.88;4844011;29;11740;-72
2021/11/30 06:51:13;;;;;;;;;20.25;20.25;;;;;7.53;67.23;99889.22;4844167;29;12583;-72
2021/11/30 06:54:09;;;;;;;;;20.50;20.50;;;;;7.48;67.05;99888.59;4844113;29;12604;-72
2021/11/30 06:57:05;;;;;;;;;17.50;17.50;;;;;7.59;66.57;99908.28;4843779;29;11750;-72
2021/11/30 07:00:04;;;;;;;;;24.00;23.00;;;;;7.64;65.89;99919.94;4828539;29;11908;-72
2021/11/30 07:03:00;;;;;;;;;19.75;19.75;;;;;7.61;65.69;99923.34;4814397;29;11752;-70
2021/11/30 07:06:00;;;;;;;;;16.00;16.00;;;;;7.74;65.83;99929.75;4826563;29;11758;-71
2021/11/30 07:09:16;;;;;;;;;16.25;16.25;;;;;7.90;65.65;99938.28;4842711;29;11783;-71
2021/11/30 07:15:09;;;;;;;;;19.75;19.75;;;;;8.05;63.82;99941.31;4842678;29;11888;-70
2021/11/30 07:18:05;;;;;;;;;17.50;17.00;;;;;7.95;64.18;99952.66;4838750;29;11723;-70
2021/11/30 07:21:01;;;;;;;;;20.00;20.00;;;;;8.24;63.29;99949.13;4825666;29;11730;-70
2021/11/30 07:23:58;;;;;;;;;17.25;17.25;;;;;8.33;63.58;99949.88;4826019;29;11658;-72
2021/11/30 07:26:53;;;;;;;;;17.25;16.50;;;;;8.54;62.16;99949.13;4828841;29;12492;-72
2021/11/30 07:29:49;;;;;;;;;14.25;14.25;;;;;8.37;61.76;99941.78;4827458;29;11759;-71
2021/11/30 07:32:45;;;;;;;;;19.50;19.50;;;;;8.39;62.83;99950.53;4813609;29;11651;-71
2021/11/30 07:35:40;;;;;;;;;16.25;16.25;;;;;8.54;60.73;99947.16;4840862;29;11645;-71
2021/11/30 07:38:38;;;;;;;;;16.50;16.50;;;;;8.90;60.94;99937.50;4830980;29;11692;-71
2021/11/30 07:41:35;;;;;;;;;14.75;14.75;;;;;8.98;60.43;99938.56;4843192;29;11723;-72
2021/11/30 07:44:31;;;;;;;;;19.50;16.75;;;;;8.97;59.80;99932.25;4842196;29;11663;-72
2021/11/30 07:47:27;;;;;;;;;14.00;14.00;;;;;9.07;60.28;99925.50;4843664;29;11674;-72
2021/11/30 07:50:23;;;;;;;;;15.00;15.00;;;;;9.13;58.73;99921.38;4843213;29;11677;-72
2021/11/30 07:53:20;;;;;;;;;17.25;17.00;;;;;9.19;58.42;99912.53;4830924;29;11732;-72
2021/11/30 07:56:15;;;;;;;;;16.50;16.50;;;;;8.74;59.97;99919.94;4843095;29;11761;-71
2021/11/30 07:59:11;;;;;;;;;20.00;19.50;;;;;9.15;59.31;99924.59;4843395;29;11660;-71
2021/11/30 08:02:08;;;;;;;;;17.00;17.00;;;;;9.38;60.73;99922.25;4843114;29;12063;-71
2021/11/30 08:05:05;;;;;;;;;18.00;17.50;;;;;9.63;58.98;99931.38;4835354;29;12152;-71
2021/11/30 08:08:02;;;;;;;;;14.25;14.25;;;;;9.86;58.21;99929.78;4834149;29;11259;-70
2021/11/30 08:10:58;;;;;;;;;15.00;15.00;;;;;9.99;57.33;99922.34;4838450;29;11161;-72
2021/11/30 08:13:53;;;;;;;;;20.75;20.75;;;;;10.13;57.46;99922.78;4824469;29;11408;-73
2021/11/30 08:16:49;;;;;;;;;16.25;16.00;;;;;10.19;55.59;99909.53;4837439;29;11681;-72
2021/11/30 08:19:46;;;;;;;;;20.25;20.25;;;;;10.44;55.21;99915.88;4835447;29;11098;-72
2021/11/30 08:22:42;;;;;;;;;18.25;18.25;;;;;10.28;53.91;99913.81;4841735;29;10989;-72
2021/11/30 08:25:39;;;;;;;;;18.00;16.50;;;;;10.29;55.43;99901.63;4834286;29;11138;-72
2021/11/30 08:28:35;;;;;;;;;16.25;16.25;;;;;10.63;55.04;99898.66;4842009;29;11001;-71
2021/11/30 08:31:30;;;;;;;;;10.25;10.25;;;;;10.43;54.92;99909.53;4841696;29;11067;-71
2021/11/30 08:34:27;;;;;;;;;11.50;11.25;;;;;10.45;52.93;99918.28;4840969;29;11034;-72
2021/11/30 08:37:23;;;;;;;;;17.75;17.75;;;;;10.36;51.55;99903.81;4830405;29;10997;-71
2021/11/30 08:40:19;;;;;;;;;17.00;15.50;;;;;10.56;53.43;99907.53;4840157;29;11056;-71
2021/11/30 08:43:15;;;;;;;;;8.00;8.00;;;;;10.78;52.80;99904.25;4840329;29;10998;-71
2021/11/30 08:46:10;;;;;;;;;15.00;15.00;;;;;10.86;53.03;99899.72;4830029;29;11118;-71
2021/11/30 08:49:06;;;;;;;;;23.25;21.75;;;;;10.85;54.55;99909.97;4840941;29;11019;-70
2021/11/30 08:52:04;;;;;;;;;17.00;16.50;;;;;11.02;52.32;99906.09;4841970;29;11187;-71
2021/11/30 08:55:00;;;;;;;;;14.00;14.00;;;;;11.03;51.11;99904.13;4840911;29;11008;-71
2021/11/30 08:57:56;;;;;;;;;10.00;10.00;;;;;10.97;50.37;99911.09;4829524;29;10649;-71
2021/11/30 09:00:52;;;;;;;;;14.00;14.00;;;;;10.97;50.97;99911.91;4823672;29;10638;-71
2021/11/30 09:03:48;;;;;;;;;12.75;12.75;;;;;9.70;53.09;99921.38;4837777;29;10588;-71
2021/11/30 09:06:44;;;;;;;;;13.00;13.00;;;;;10.22;52.52;99912.44;4842339;29;10559;-71
2021/11/30 09:09:39;;;;;;;;;16.00;14.00;;;;;9.91;52.61;99910.25;4841035;29;10661;-70
2021/11/30 09:12:36;;;;;;;;;12.50;12.50;;;;;9.81;52.50;99916.22;4841139;29;10769;-71
2021/11/30 09:15:32;;;;;;;;;17.00;16.75;;;;;9.63;53.76;99912.88;4841652;29;11130;-71
2021/11/30 09:18:30;;;;;;;;;21.75;21.75;;;;;9.59;53.11;99913.91;4824471;29;11291;-72
2021/11/30 09:21:27;;;;;;;;;17.25;15.50;;;;;9.33;54.72;99915.00;4823317;29;11723;-72
2021/11/30 09:24:23;;;;;;;;;10.50;10.50;;;;;9.21;55.59;99914.16;4836414;29;11772;-70
2021/11/30 09:27:20;;;;;;;;;21.75;20.25;;;;;9.39;55.71;99904.56;4837493;29;11323;-71
2021/11/30 09:30:19;;;;;;;;;154.25;131.75;;;;;9.28;55.48;99906.13;4829271;29;11892;-71
2021/11/30 09:33:15;;;;;;;;;73.00;59.25;;;;;9.00;56.43;99909.50;4841611;29;8876;-71
2021/11/30 09:36:11;;;;;;;;;18.00;17.25;;;;;8.84;57.83;99911.28;4822945;29;11808;-72
2021/11/30 09:39:07;;;;;;;;;27.50;27.50;;;;;8.89;57.98;99897.25;4823515;29;11700;-70
2021/11/30 09:42:04;;;;;;;;;19.00;18.50;;;;;9.03;59.00;99891.44;4838758;29;11689;-73
2021/11/30 09:45:04;;;;;;;;;16.00;16.00;;;;;8.81;57.25;99878.84;4841281;29;12513;-70
2021/11/30 09:48:00;;;;;;;;;19.75;19.25;;;;;8.84;59.25;99879.00;4841237;29;11633;-70
2021/11/30 09:50:57;;;;;;;;;17.00;17.00;;;;;8.88;58.73;99865.31;4837278;29;11663;-70
2021/11/30 09:53:53;;;;;;;;;21.25;20.25;;;;;8.97;58.31;99854.19;4833704;29;11697;-71
2021/11/30 09:56:49;;;;;;;;;17.50;17.50;;;;;8.40;58.99;99841.91;4838136;29;11684;-70
2021/11/30 09:59:47;;;;;;;;;17.00;15.50;;;;;8.71;59.55;99835.16;4841249;29;11794;-70
2021/11/30 10:02:43;;;;;;;;;15.50;15.50;;;;;8.98;59.23;99811.72;4833993;29;12524;-72
2021/11/30 10:05:39;;;;;;;;;25.25;25.00;;;;;9.13;61.13;99802.78;4834190;29;11702;-71
2021/11/30 10:08:42;;;;;;;;;25.50;24.50;;;;;9.13;60.70;99822.88;4840941;29;11687;-71
2021/11/30 10:11:38;;;;;;;;;17.50;17.50;;;;;9.21;60.34;99836.94;4822430;29;11815;-71
2021/11/30 10:14:38;;;;;;;;;13.50;13.50;;;;;9.07;60.40;99854.59;4821921;29;11776;-72
2021/11/30 10:17:35;;;;;;;;;16.25;16.25;;;;;9.12;61.75;99837.84;4837139;29;12334;-70
2021/11/30 10:20:30;;;;;;;;;32.00;28.25;;;;;9.20;58.19;99827.81;4810087;29;11648;-71
2021/11/30 10:23:30;;;;;;;;;15.75;15.75;;;;;9.13;57.52;99820.13;4839420;29;11707;-70
2021/11/30 10:26:33;;;;;;;;;15.00;15.00;;;;;9.19;59.26;99828.97;4840505;29;11794;-72
2021/11/30 10:29:30;;;;;;;;;17.50;15.00;;;;;9.16;61.25;99816.69;4840404;29;11699;-70
2021/11/30 10:32:36;;;;;;;;;15.00;15.00;;;;;9.07;61.17;99810.47;4840703;29;11658;-72
2021/11/30 10:35:32;;;;;;;;;21.25;17.75;;;;;9.19;60.09;99818.72;4837457;29;11674;-71
2021/11/30 10:38:36;;;;;;;;;18.50;17.75;;;;;8.99;60.55;99805.84;4833905;29;11895;-72
2021/11/30 10:41:33;;;;;;;;;16.50;16.50;;;;;9.22;64.56;99816.47;4822243;29;11693;-72
2021/11/30 10:44:31;;;;;;;;;22.25;21.50;;;;;9.23;65.44;99812.56;4835288;29;11688;-70
2021/11/30 10:47:30;;;;;;;;;19.25;19.25;;;;;9.10;60.77;99812.53;4839032;29;12448;-70
2021/11/30 10:50:26;;;;;;;;;21.00;21.00;;;;;8.97;59.22;99805.38;4829312;29;11686;-71
2021/11/30 10:53:24;;;;;;;;;18.25;18.25;;;;;8.82;61.63;99795.81;4840172;29;11709;-71
2021/11/30 10:56:20;;;;;;;;;20.75;20.75;;;;;8.66;60.17;99791.25;4840419;29;11761;-71
2021/11/30 10:59:21;;;;;;;;;16.25;16.25;;;;;8.46;62.25;99779.97;4840445;29;11695;-69
2021/11/30 11:02:19;;;;;;;;;22.00;20.75;;;;;8.56;61.02;99784.22;4840312;29;11734;-70
2021/11/30 11:05:27;;;;;;;;;23.25;23.25;;;;;8.61;62.35;99784.84;4841038;29;12479;-70
2021/11/30 11:08:23;;;;;;;;;15.00;15.00;;;;;8.59;60.29;99776.09;4843582;29;11756;-70
2021/11/30 11:11:25;;;;;;;;;24.50;23.50;;;;;8.27;60.60;99763.88;4843862;29;11705;-70
2021/11/30 11:14:25;;;;;;;;;17.00;16.75;;;;;8.50;62.41;99761.59;4843833;29;11681;-68
2021/11/30 11:17:31;;;;;;;;;24.75;24.75;;;;;8.62;59.64;99756.13;4843637;29;11677;-71
2021/11/30 11:20:26;;;;;;;;;19.75;18.75;;;;;8.57;60.02;99752.78;4843516;29;11715;-70
2021/11/30 11:23:24;;;;;;;;;24.25;24.25;;;;;8.71;61.18;99755.22;4843600;29;11680;-69
2021/11/30 11:26:28;;;;;;;;;28.75;27.75;;;;;8.76;61.19;99749.50;4843028;29;11688;-69
2021/11/30 11:29:29;;;;;;;;;52.50;44.50;;;;;8.81;62.28;99741.00;4843281;29;11708;-69
2021/11/30 11:32:26;;;;;;;;;62.00;51.25;;;;;8.89;60.86;99738.16;4831034;29;12727;-69
2021/11/30 11:35:24;;;;;;;;;21.50;21.50;;;;;8.89;60.64;99734.56;4841933;29;11882;-69
2021/11/30 11:38:20;;;;;;;;;58.00;42.25;;;;;9.03;66.01;99725.97;4843051;29;12344;-70
2021/11/30 11:41:16;;;;;;;;;32.75;32.75;;;;;8.66;63.09;99727.88;4843178;29;11734;-69
2021/11/30 11:44:12;;;;;;;;;21.75;21.75;;;;;8.61;59.97;99732.47;4841917;29;11681;-70
2021/11/30 11:47:16;;;;;;;;;19.00;19.00;;;;;8.75;59.81;99729.41;4843056;29;12471;-70
2021/11/30 11:50:14;;;;;;;;;18.75;18.75;;;;;8.75;59.18;99728.59;4837666;29;11683;-68
2021/11/30 11:53:29;;;;;;;;;19.50;17.00;;;;;8.66;59.97;99733.38;4833509;29;11660;-68
2021/11/30 11:56:33;;;;;;;;;18.75;18.75;;;;;8.80;59.74;99731.13;4841729;29;11726;-70
2021/11/30 11:59:37;;;;;;;;;12.50;12.50;;;;;8.75;59.53;99737.69;4836079;29;11721;-70
2021/11/30 12:02:33;;;;;;;;;19.50;19.50;;;;;8.69;58.88;99718.94;4824622;29;11695;-71
2021/11/30 12:05:39;;;;;;;;;18.75;18.75;;;;;8.66;59.53;99723.16;4841636;29;12516;-69
2021/11/30 12:08:35;;;;;;;;;17.75;17.50;;;;;8.56;59.80;99718.09;4842683;29;11656;-69
2021/11/30 12:11:42;;;;;;;;;16.75;16.75;;;;;8.57;58.91;99711.44;4842848;29;11790;-69
2021/11/30 12:14:41;;;;;;;;;20.00;17.00;;;;;8.58;58.58;99721.31;4830668;29;11701;-69
2021/11/30 12:17:37;;;;;;;;;20.25;20.25;;;;;8.47;59.71;99720.94;4826311;29;11667;-68
2021/11/30 12:20:45;;;;;;;;;13.25;13.25;;;;;8.38;59.38;99722.19;4824418;29;11658;-68
2021/11/30 12:23:44;;;;;;;;;16.75;16.75;;;;;8.47;59.70;99723.69;4837793;29;11885;-69
2021/11/30 12:26:44;;;;;;;;;17.00;17.00;;;;;8.42;60.17;99712.88;4841240;29;11691;-69
2021/11/30 12:29:41;;;;;;;;;13.75;13.75;;;;;8.44;60.20;99710.63;4842590;29;11877;-70
2021/11/30 12:32:38;;;;;;;;;17.75;17.75;;;;;8.44;60.70;99698.78;4842237;29;11622;-69
2021/11/30 12:35:55;;;;;;;;;19.50;19.00;;;;;8.47;59.97;99698.91;4841045;29;11643;-69
2021/11/30 12:38:51;;;;;;;;;14.25;14.25;;;;;8.34;60.10;99687.00;4842355;29;11677;-69
2021/11/30 12:41:50;;;;;;;;;20.25;19.75;;;;;8.26;60.59;99674.13;4842250;29;11668;-69
2021/11/30 12:44:45;;;;;;;;;20.25;20.25;;;;;8.18;61.50;99674.22;4842161;29;11738;-69
2021/11/30 12:47:41;;;;;;;;;24.00;23.50;;;;;8.19;62.81;99668.38;4842121;29;11659;-69
2021/11/30 12:50:37;;;;;;;;;27.25;26.25;;;;;8.38;62.36;99643.09;4841769;29;11690;-69
2021/11/30 12:53:53;;;;;;;;;21.25;21.25;;;;;8.23;62.05;99661.03;4842071;29;11734;-69
2021/11/30 12:56:55;;;;;;;;;17.00;17.00;;;;;8.46;61.10;99644.94;4842032;29;12450;-69
2021/11/30 12:59:57;;;;;;;;;24.75;24.25;;;;;8.49;61.75;99641.50;4841898;29;12433;-69
2021/11/30 13:03:13;;;;;;;;;21.75;21.50;;;;;8.37;61.70;99632.44;4840992;29;11688;-70
2021/11/30 13:06:09;;;;;;;;;18.50;18.25;;;;;8.26;63.29;99615.47;4837460;29;11677;-68
2021/11/30 13:09:09;;;;;;;;;18.00;18.00;;;;;8.29;61.57;99623.09;4842652;29;11748;-69
2021/11/30 13:12:06;;;;;;;;;18.75;18.75;;;;;8.20;61.83;99623.16;4842367;29;11683;-69
2021/11/30 13:15:05;;;;;;;;;19.25;19.25;;;;;8.28;60.72;99627.78;4829552;29;11723;-69
2021/11/30 13:18:04;;;;;;;;;24.50;24.50;;;;;8.20;61.74;99622.34;4823380;29;11727;-68
2021/11/30 13:21:01;;;;;;;;;33.00;29.50;;;;;8.18;61.44;99619.13;4823358;29;11760;-69
2021/11/30 13:24:10;;;;;;;;;18.00;17.00;;;;;8.22;60.73;99620.09;4827332;29;11726;-70
2021/11/30 13:27:20;;;;;;;;;24.75;24.75;;;;;8.07;62.53;99624.28;4841407;29;11733;-68
2021/11/30 13:30:18;;;;;;;;;25.75;25.75;;;;;7.98;64.03;99615.31;4836258;29;11749;-68
2021/11/30 13:33:18;;;;;;;;;24.75;24.75;;;;;8.08;64.20;99625.88;4811796;29;11680;-69
2021/11/30 13:36:06;;;;;;;;;25.00;23.00;;;;;8.05;64.43;99624.63;4824675;29;11799;-67
2021/11/30 13:39:02;;;;;;;;;18.75;16.25;;;;;7.79;65.05;99619.38;4824485;29;11689;-69
2021/11/30 13:42:01;;;;;;;;;23.00;23.00;;;;;7.85;65.21;99619.97;4824487;29;11791;-67
2021/11/30 13:44:57;;;;;;;;;19.25;19.25;;;;;7.83;66.19;99602.19;4834432;29;11671;-67
2021/11/30 13:47:53;;;;;;;;;28.00;28.00;;;;;7.68;67.33;99587.91;4836134;29;12556;-68